AUA27J LOWW-EDDV
Flight info
| Callsign | AUA27J |
|---|---|
| Flight time | 1h 11m |
| Altitude | 36000 |
| Route | LANUX2C/29 LANUX DCT VLM DCT HDO M748 RENDO/N0449F300 Q230 TADUV/N0437F280 T804 MAG/N0410F240 T804 HLZ HLZ1X |
| Aircraft | A320/M-SDE3FGHIRWY/LB1 |
Departure
| Time | 2026-04-25 19:43 |
|---|---|
| Airport | Vienna International Airport (LOWW) |
Arrival
| Time | 2026-04-25 20:54 |
|---|---|
| Airport | Hannover Airport (EDDV) |
| Time | Latitude | Longitude | Altitude | Speed | Heading |
|---|---|---|---|---|---|
| 2026-04-25 19:13 | 48.11879 | 16.56822 | 614 ft | 0 kts | 206° |
| 2026-04-25 19:34 | 48.11887 | 16.56827 | 609 ft | 4 kts | 206° |
| 2026-04-25 19:34 | 48.11911 | 16.56845 | 614 ft | 4 kts | 206° |
| 2026-04-25 19:34 | 48.11935 | 16.56863 | 625 ft | 4 kts | 211° |
| 2026-04-25 19:35 | 48.11958 | 16.56884 | 618 ft | 4 kts | 206° |
| 2026-04-25 19:35 | 48.11979 | 16.56894 | 623 ft | 4 kts | 139° |
| 2026-04-25 19:35 | 48.11989 | 16.56871 | 621 ft | 4 kts | 115° |
| 2026-04-25 19:35 | 48.11994 | 16.56855 | 619 ft | 0 kts | 115° |
| 2026-04-25 19:38 | 48.11979 | 16.56901 | 609 ft | 10 kts | 115° |
| 2026-04-25 19:38 | 48.11951 | 16.56988 | 614 ft | 10 kts | 116° |
| 2026-04-25 19:38 | 48.11912 | 16.57110 | 622 ft | 14 kts | 115° |
| 2026-04-25 19:38 | 48.11862 | 16.57207 | 625 ft | 11 kts | 128° |
| 2026-04-25 19:39 | 48.11828 | 16.57299 | 619 ft | 9 kts | 117° |
| 2026-04-25 19:39 | 48.11785 | 16.57353 | 619 ft | 8 kts | 159° |
| 2026-04-25 19:39 | 48.11726 | 16.57380 | 623 ft | 12 kts | 162° |
| 2026-04-25 19:39 | 48.11625 | 16.57423 | 614 ft | 18 kts | 164° |
| 2026-04-25 19:40 | 48.11494 | 16.57455 | 609 ft | 19 kts | 198° |
| 2026-04-25 19:40 | 48.11372 | 16.57373 | 609 ft | 20 kts | 207° |
| 2026-04-25 19:40 | 48.11239 | 16.57286 | 615 ft | 21 kts | 188° |
| 2026-04-25 19:40 | 48.11184 | 16.57375 | 620 ft | 7 kts | 116° |
| 2026-04-25 19:41 | 48.11160 | 16.57441 | 620 ft | 8 kts | 120° |
| 2026-04-25 19:41 | 48.11111 | 16.57524 | 614 ft | 13 kts | 156° |
| 2026-04-25 19:41 | 48.11029 | 16.57496 | 609 ft | 11 kts | 204° |
| 2026-04-25 19:41 | 48.11006 | 16.57479 | 615 ft | 11 kts | 208° |
| 2026-04-25 19:42 | 48.10982 | 16.57328 | 618 ft | 11 kts | 296° |
| 2026-04-25 19:42 | 48.11040 | 16.57152 | 618 ft | 42 kts | 296° |
| 2026-04-25 19:42 | 48.11273 | 16.56430 | 620 ft | 108 kts | 296° |
| 2026-04-25 19:42 | 48.11675 | 16.55183 | 639 ft | 154 kts | 295° |
| 2026-04-25 19:43 | 48.12135 | 16.53700 | 1208 ft | 156 kts | 287° |
| 2026-04-25 19:43 | 48.12124 | 16.52102 | 1870 ft | 163 kts | 255° |
| 2026-04-25 19:43 | 48.11341 | 16.50686 | 2241 ft | 196 kts | 221° |
| 2026-04-25 19:43 | 48.10129 | 16.49495 | 2654 ft | 215 kts | 219° |
| 2026-04-25 19:44 | 48.08879 | 16.48293 | 3409 ft | 217 kts | 218° |
| 2026-04-25 19:44 | 48.07711 | 16.46904 | 4172 ft | 213 kts | 237° |
| 2026-04-25 19:44 | 48.06986 | 16.44887 | 4603 ft | 231 kts | 250° |
| 2026-04-25 19:44 | 48.06312 | 16.42583 | 5007 ft | 255 kts | 250° |
| 2026-04-25 19:45 | 48.05570 | 16.40097 | 5720 ft | 264 kts | 249° |
| 2026-04-25 19:45 | 48.04803 | 16.37563 | 6585 ft | 269 kts | 249° |
| 2026-04-25 19:45 | 48.04029 | 16.35015 | 7443 ft | 271 kts | 248° |
| 2026-04-25 19:45 | 48.03428 | 16.32354 | 8319 ft | 270 kts | 263° |
| 2026-04-25 19:46 | 48.03379 | 16.29541 | 9194 ft | 270 kts | 275° |
| 2026-04-25 19:46 | 48.03506 | 16.26768 | 10048 ft | 273 kts | 275° |
| 2026-04-25 19:46 | 48.03709 | 16.23888 | 10486 ft | 289 kts | 282° |
| 2026-04-25 19:46 | 48.04336 | 16.20888 | 10725 ft | 312 kts | 294° |
| 2026-04-25 19:47 | 48.05446 | 16.18060 | 11247 ft | 323 kts | 306° |
| 2026-04-25 19:47 | 48.06877 | 16.15437 | 11965 ft | 327 kts | 308° |
| 2026-04-25 19:47 | 48.08322 | 16.12783 | 12739 ft | 330 kts | 308° |
| 2026-04-25 19:47 | 48.09772 | 16.10094 | 13507 ft | 332 kts | 307° |
| 2026-04-25 19:48 | 48.11221 | 16.07401 | 14210 ft | 335 kts | 308° |
| 2026-04-25 19:48 | 48.12897 | 16.04934 | 14841 ft | 341 kts | 320° |
| 2026-04-25 19:48 | 48.14930 | 16.03049 | 15490 ft | 347 kts | 332° |
| 2026-04-25 19:48 | 48.17208 | 16.01753 | 16137 ft | 352 kts | 337° |
| 2026-04-25 19:49 | 48.19526 | 16.00530 | 16786 ft | 355 kts | 337° |
| 2026-04-25 19:49 | 48.20275 | 16.00132 | 16986 ft | 356 kts | 337° |
| 2026-04-25 19:49 | 48.24191 | 15.98037 | 18042 ft | 361 kts | 337° |
| 2026-04-25 19:49 | 48.26588 | 15.96748 | 18622 ft | 364 kts | 337° |
| 2026-04-25 19:50 | 48.31394 | 15.94167 | 19738 ft | 369 kts | 336° |
| 2026-04-25 19:50 | 48.33801 | 15.92873 | 20306 ft | 371 kts | 336° |
| 2026-04-25 19:50 | 48.36242 | 15.91559 | 20868 ft | 374 kts | 336° |
| 2026-04-25 19:51 | 48.38722 | 15.90222 | 21427 ft | 377 kts | 336° |
| 2026-04-25 19:51 | 48.41170 | 15.88901 | 21964 ft | 379 kts | 336° |
| 2026-04-25 19:51 | 48.43648 | 15.87565 | 22492 ft | 382 kts | 336° |
| 2026-04-25 19:51 | 48.46173 | 15.86204 | 23017 ft | 384 kts | 336° |
| 2026-04-25 19:52 | 48.48690 | 15.84844 | 23522 ft | 387 kts | 336° |
| 2026-04-25 19:52 | 48.51234 | 15.83466 | 23932 ft | 389 kts | 336° |
| 2026-04-25 19:52 | 48.53792 | 15.82081 | 24330 ft | 392 kts | 336° |
| 2026-04-25 19:52 | 48.56363 | 15.80686 | 24722 ft | 394 kts | 336° |
| 2026-04-25 19:53 | 48.58949 | 15.79275 | 25105 ft | 396 kts | 336° |
| 2026-04-25 19:53 | 48.61544 | 15.77862 | 25483 ft | 398 kts | 336° |
| 2026-04-25 19:53 | 48.64158 | 15.76437 | 25856 ft | 400 kts | 337° |
| 2026-04-25 19:53 | 48.66787 | 15.75007 | 26224 ft | 403 kts | 337° |
| 2026-04-25 19:54 | 48.69434 | 15.73566 | 26585 ft | 405 kts | 337° |
| 2026-04-25 19:54 | 48.72101 | 15.72113 | 26946 ft | 407 kts | 337° |
| 2026-04-25 19:54 | 48.74763 | 15.70662 | 27297 ft | 409 kts | 337° |
| 2026-04-25 19:54 | 48.75633 | 15.70187 | 27412 ft | 409 kts | 337° |
| 2026-04-25 19:55 | 48.80147 | 15.67709 | 27996 ft | 412 kts | 337° |
| 2026-04-25 19:55 | 48.82842 | 15.66220 | 28320 ft | 414 kts | 337° |
| 2026-04-25 19:55 | 48.85477 | 15.64454 | 28652 ft | 414 kts | 329° |
| 2026-04-25 19:55 | 48.87987 | 15.62298 | 28968 ft | 415 kts | 329° |
| 2026-04-25 19:56 | 48.90588 | 15.60403 | 29265 ft | 419 kts | 334° |
| 2026-04-25 19:56 | 48.93260 | 15.58640 | 29572 ft | 420 kts | 334° |
| 2026-04-25 19:56 | 48.95963 | 15.56850 | 29866 ft | 422 kts | 334° |
| 2026-04-25 19:56 | 48.98619 | 15.55089 | 30140 ft | 423 kts | 334° |
| 2026-04-25 19:57 | 49.01324 | 15.53294 | 30369 ft | 424 kts | 334° |
| 2026-04-25 19:57 | 49.04032 | 15.51497 | 30603 ft | 425 kts | 334° |
| 2026-04-25 19:57 | 49.06739 | 15.49694 | 30910 ft | 424 kts | 334° |
| 2026-04-25 19:57 | 49.09462 | 15.47877 | 31242 ft | 422 kts | 334° |
| 2026-04-25 19:58 | 49.12117 | 15.46108 | 31573 ft | 420 kts | 334° |
| 2026-04-25 19:58 | 49.14795 | 15.44321 | 31902 ft | 419 kts | 333° |
| 2026-04-25 19:58 | 49.17457 | 15.42541 | 32234 ft | 418 kts | 333° |
| 2026-04-25 19:58 | 49.20119 | 15.40756 | 32558 ft | 416 kts | 333° |
| 2026-04-25 19:59 | 49.22768 | 15.38975 | 32884 ft | 415 kts | 333° |
| 2026-04-25 19:59 | 49.25397 | 15.37213 | 33203 ft | 413 kts | 333° |
| 2026-04-25 19:59 | 49.28039 | 15.35443 | 33534 ft | 412 kts | 333° |
| 2026-04-25 19:59 | 49.30652 | 15.33693 | 33866 ft | 411 kts | 333° |
| 2026-04-25 20:00 | 49.33268 | 15.31936 | 34165 ft | 409 kts | 333° |
| 2026-04-25 20:00 | 49.38485 | 15.28417 | 34718 ft | 407 kts | 333° |
| 2026-04-25 20:00 | 49.41067 | 15.26672 | 34971 ft | 407 kts | 333° |
| 2026-04-25 20:01 | 49.46224 | 15.23180 | 35459 ft | 405 kts | 333° |
| 2026-04-25 20:01 | 49.48800 | 15.21435 | 35688 ft | 404 kts | 333° |
| 2026-04-25 20:01 | 49.51374 | 15.19686 | 35922 ft | 404 kts | 333° |
| 2026-04-25 20:02 | 49.56511 | 15.16189 | 36022 ft | 403 kts | 333° |
| 2026-04-25 20:02 | 49.61628 | 15.12701 | 36027 ft | 401 kts | 333° |
| 2026-04-25 20:03 | 49.66726 | 15.09216 | 36014 ft | 401 kts | 333° |
| 2026-04-25 20:03 | 49.71841 | 15.05767 | 36025 ft | 401 kts | 334° |
| 2026-04-25 20:04 | 49.77098 | 15.02766 | 36013 ft | 402 kts | 337° |
| 2026-04-25 20:04 | 49.82388 | 14.99977 | 36027 ft | 402 kts | 337° |
| 2026-04-25 20:05 | 49.87670 | 14.97113 | 36027 ft | 402 kts | 336° |
| 2026-04-25 20:05 | 49.92920 | 14.94166 | 36030 ft | 402 kts | 336° |
| 2026-04-25 20:06 | 49.97294 | 14.91694 | 36021 ft | 402 kts | 336° |
| 2026-04-25 20:06 | 50.02546 | 14.88728 | 36023 ft | 402 kts | 336° |
| 2026-04-25 20:07 | 50.08664 | 14.85283 | 36020 ft | 402 kts | 336° |
| 2026-04-25 20:07 | 50.13060 | 14.82807 | 36020 ft | 402 kts | 336° |
| 2026-04-25 20:08 | 50.18326 | 14.79840 | 36017 ft | 402 kts | 336° |
| 2026-04-25 20:08 | 50.23565 | 14.76872 | 36023 ft | 402 kts | 336° |
| 2026-04-25 20:09 | 50.28830 | 14.73868 | 36021 ft | 402 kts | 336° |
| 2026-04-25 20:09 | 50.34072 | 14.70865 | 36018 ft | 401 kts | 336° |
| 2026-04-25 20:10 | 50.39296 | 14.67882 | 36021 ft | 401 kts | 336° |
| 2026-04-25 20:10 | 50.44534 | 14.64883 | 36023 ft | 401 kts | 336° |
| 2026-04-25 20:11 | 50.49808 | 14.61851 | 36024 ft | 400 kts | 336° |
| 2026-04-25 20:11 | 50.54992 | 14.58868 | 36028 ft | 400 kts | 336° |
| 2026-04-25 20:12 | 50.60202 | 14.55854 | 36030 ft | 399 kts | 336° |
| 2026-04-25 20:12 | 50.64569 | 14.53332 | 36034 ft | 398 kts | 336° |
| 2026-04-25 20:13 | 50.70597 | 14.49851 | 36033 ft | 397 kts | 336° |
| 2026-04-25 20:13 | 50.75775 | 14.46840 | 36030 ft | 396 kts | 336° |
| 2026-04-25 20:14 | 50.80928 | 14.43835 | 36030 ft | 395 kts | 336° |
| 2026-04-25 20:14 | 50.86083 | 14.40826 | 36027 ft | 395 kts | 336° |
| 2026-04-25 20:15 | 50.91208 | 14.37750 | 36029 ft | 392 kts | 332° |
| 2026-04-25 20:15 | 50.95651 | 14.33001 | 36022 ft | 387 kts | 318° |
| 2026-04-25 20:16 | 50.99744 | 14.27363 | 36020 ft | 387 kts | 318° |
| 2026-04-25 20:16 | 51.03813 | 14.21769 | 36018 ft | 387 kts | 318° |
| 2026-04-25 20:17 | 51.07881 | 14.16158 | 36018 ft | 387 kts | 318° |
| 2026-04-25 20:17 | 51.11943 | 14.10552 | 36021 ft | 387 kts | 318° |
| 2026-04-25 20:18 | 51.15978 | 14.04964 | 36027 ft | 387 kts | 318° |
| 2026-04-25 20:18 | 51.20058 | 13.99282 | 36031 ft | 387 kts | 318° |
| 2026-04-25 20:19 | 51.24109 | 13.93633 | 36035 ft | 387 kts | 317° |
| 2026-04-25 20:19 | 51.27396 | 13.86905 | 36035 ft | 388 kts | 298° |
| 2026-04-25 20:20 | 51.28911 | 13.78658 | 36030 ft | 393 kts | 284° |
| 2026-04-25 20:20 | 51.29863 | 13.70002 | 36023 ft | 393 kts | 284° |
| 2026-04-25 20:21 | 51.30819 | 13.61433 | 36023 ft | 394 kts | 284° |
| 2026-04-25 20:21 | 51.31777 | 13.52778 | 36019 ft | 394 kts | 284° |
| 2026-04-25 20:22 | 51.32560 | 13.45590 | 36014 ft | 394 kts | 284° |
| 2026-04-25 20:22 | 51.33648 | 13.35557 | 36014 ft | 394 kts | 284° |
| 2026-04-25 20:23 | 51.34577 | 13.26927 | 36013 ft | 395 kts | 284° |
| 2026-04-25 20:23 | 51.35497 | 13.18258 | 36012 ft | 395 kts | 284° |
| 2026-04-25 20:24 | 51.36503 | 13.09639 | 36013 ft | 395 kts | 285° |
| 2026-04-25 20:24 | 51.37570 | 13.00986 | 36016 ft | 395 kts | 285° |
| 2026-04-25 20:25 | 51.38616 | 12.92341 | 36016 ft | 396 kts | 285° |
| 2026-04-25 20:25 | 51.39635 | 12.83722 | 36023 ft | 397 kts | 285° |
| 2026-04-25 20:26 | 51.40658 | 12.74994 | 36022 ft | 397 kts | 285° |
| 2026-04-25 20:26 | 51.41673 | 12.66275 | 36031 ft | 397 kts | 285° |
| 2026-04-25 20:27 | 51.43086 | 12.57809 | 36034 ft | 392 kts | 298° |
| 2026-04-25 20:27 | 51.46184 | 12.50742 | 36039 ft | 388 kts | 316° |
| 2026-04-25 20:28 | 51.50339 | 12.45174 | 36049 ft | 388 kts | 320° |
| 2026-04-25 20:28 | 51.54485 | 12.39705 | 36053 ft | 388 kts | 320° |
| 2026-04-25 20:29 | 51.58647 | 12.34188 | 36060 ft | 388 kts | 320° |
| 2026-04-25 20:29 | 51.62811 | 12.28665 | 36065 ft | 388 kts | 320° |
| 2026-04-25 20:30 | 51.66966 | 12.23138 | 36069 ft | 387 kts | 320° |
| 2026-04-25 20:30 | 51.71130 | 12.17593 | 36074 ft | 387 kts | 320° |
| 2026-04-25 20:31 | 51.75275 | 12.12069 | 36074 ft | 387 kts | 320° |
| 2026-04-25 20:31 | 51.77343 | 12.09307 | 35964 ft | 387 kts | 320° |
| 2026-04-25 20:31 | 51.79416 | 12.06531 | 35711 ft | 386 kts | 320° |
| 2026-04-25 20:32 | 51.81480 | 12.03759 | 35461 ft | 386 kts | 320° |
| 2026-04-25 20:32 | 51.83540 | 12.00988 | 35222 ft | 386 kts | 320° |
| 2026-04-25 20:32 | 51.85606 | 11.98209 | 34967 ft | 386 kts | 320° |
| 2026-04-25 20:32 | 51.87666 | 11.95435 | 34730 ft | 386 kts | 320° |
| 2026-04-25 20:33 | 51.89730 | 11.92657 | 34294 ft | 386 kts | 320° |
| 2026-04-25 20:33 | 51.91809 | 11.89855 | 33464 ft | 387 kts | 320° |
| 2026-04-25 20:33 | 51.93866 | 11.87077 | 32676 ft | 386 kts | 320° |
| 2026-04-25 20:33 | 51.95231 | 11.85232 | 32135 ft | 386 kts | 320° |
| 2026-04-25 20:34 | 51.97969 | 11.81500 | 31119 ft | 385 kts | 317° |
| 2026-04-25 20:34 | 51.99797 | 11.78336 | 30572 ft | 379 kts | 308° |
| 2026-04-25 20:34 | 52.01240 | 11.74827 | 29953 ft | 377 kts | 302° |
| 2026-04-25 20:34 | 52.02586 | 11.71206 | 29339 ft | 372 kts | 303° |
| 2026-04-25 20:35 | 52.03919 | 11.67640 | 28767 ft | 367 kts | 303° |
| 2026-04-25 20:35 | 52.05239 | 11.64118 | 28206 ft | 362 kts | 303° |
| 2026-04-25 20:35 | 52.06542 | 11.60642 | 27651 ft | 358 kts | 303° |
| 2026-04-25 20:35 | 52.07837 | 11.57174 | 27105 ft | 354 kts | 303° |
| 2026-04-25 20:36 | 52.09112 | 11.53749 | 26562 ft | 351 kts | 303° |
| 2026-04-25 20:36 | 52.10347 | 11.50435 | 26049 ft | 347 kts | 303° |
| 2026-04-25 20:36 | 52.11593 | 11.47082 | 25525 ft | 344 kts | 303° |
| 2026-04-25 20:36 | 52.12823 | 11.43763 | 25031 ft | 342 kts | 303° |
| 2026-04-25 20:37 | 52.14048 | 11.40456 | 24527 ft | 339 kts | 303° |
| 2026-04-25 20:37 | 52.15254 | 11.37191 | 24064 ft | 336 kts | 303° |
| 2026-04-25 20:37 | 52.16459 | 11.33933 | 23575 ft | 334 kts | 303° |
| 2026-04-25 20:37 | 52.17654 | 11.30705 | 23082 ft | 330 kts | 303° |
| 2026-04-25 20:38 | 52.18831 | 11.27519 | 22649 ft | 326 kts | 303° |
| 2026-04-25 20:38 | 52.19991 | 11.24370 | 22218 ft | 321 kts | 303° |
| 2026-04-25 20:38 | 52.21130 | 11.21265 | 21795 ft | 317 kts | 303° |
| 2026-04-25 20:38 | 52.22275 | 11.18143 | 21481 ft | 326 kts | 303° |
| 2026-04-25 20:39 | 52.23449 | 11.14952 | 20865 ft | 330 kts | 303° |
| 2026-04-25 20:39 | 52.24631 | 11.11732 | 20240 ft | 331 kts | 303° |
| 2026-04-25 20:39 | 52.25807 | 11.08512 | 19633 ft | 332 kts | 303° |
| 2026-04-25 20:39 | 52.26193 | 11.07457 | 19437 ft | 332 kts | 303° |
| 2026-04-25 20:40 | 52.28155 | 11.01997 | 18453 ft | 333 kts | 302° |
| 2026-04-25 20:40 | 52.29335 | 10.98742 | 17791 ft | 332 kts | 303° |
| 2026-04-25 20:40 | 52.30500 | 10.95556 | 17122 ft | 318 kts | 303° |
| 2026-04-25 20:40 | 52.31611 | 10.92518 | 16483 ft | 309 kts | 303° |
| 2026-04-25 20:41 | 52.32710 | 10.89512 | 15850 ft | 304 kts | 303° |
| 2026-04-25 20:41 | 52.33783 | 10.86566 | 15235 ft | 301 kts | 303° |
| 2026-04-25 20:41 | 52.34847 | 10.83639 | 14627 ft | 298 kts | 303° |
| 2026-04-25 20:41 | 52.35889 | 10.80760 | 14041 ft | 296 kts | 301° |
| 2026-04-25 20:42 | 52.36593 | 10.77573 | 13384 ft | 299 kts | 285° |
| 2026-04-25 20:42 | 52.36971 | 10.74235 | 12731 ft | 297 kts | 285° |
| 2026-04-25 20:42 | 52.37337 | 10.70957 | 12099 ft | 294 kts | 285° |
| 2026-04-25 20:42 | 52.37698 | 10.67695 | 11460 ft | 291 kts | 285° |
| 2026-04-25 20:43 | 52.38055 | 10.64440 | 11181 ft | 289 kts | 285° |
| 2026-04-25 20:43 | 52.38418 | 10.61150 | 11131 ft | 289 kts | 285° |
| 2026-04-25 20:43 | 52.38769 | 10.57954 | 11115 ft | 290 kts | 285° |
| 2026-04-25 20:43 | 52.39125 | 10.54709 | 10810 ft | 289 kts | 285° |
| 2026-04-25 20:44 | 52.39471 | 10.51524 | 10491 ft | 274 kts | 285° |
| 2026-04-25 20:44 | 52.39791 | 10.48541 | 10206 ft | 261 kts | 285° |
| 2026-04-25 20:44 | 52.40098 | 10.45698 | 10102 ft | 251 kts | 285° |
| 2026-04-25 20:44 | 52.40404 | 10.42874 | 9666 ft | 252 kts | 285° |
| 2026-04-25 20:45 | 52.40717 | 10.40033 | 9181 ft | 253 kts | 285° |
| 2026-04-25 20:45 | 52.41029 | 10.37206 | 8713 ft | 254 kts | 285° |
| 2026-04-25 20:45 | 52.41239 | 10.35283 | 8388 ft | 254 kts | 284° |
| 2026-04-25 20:45 | 52.41651 | 10.31488 | 7712 ft | 256 kts | 284° |
| 2026-04-25 20:46 | 52.41960 | 10.28622 | 7197 ft | 252 kts | 284° |
| 2026-04-25 20:46 | 52.42257 | 10.25824 | 6677 ft | 244 kts | 284° |
| 2026-04-25 20:46 | 52.42542 | 10.23140 | 6040 ft | 240 kts | 284° |
| 2026-04-25 20:46 | 52.42827 | 10.20454 | 5395 ft | 238 kts | 284° |
| 2026-04-25 20:47 | 52.43108 | 10.17797 | 4754 ft | 237 kts | 284° |
| 2026-04-25 20:47 | 52.43389 | 10.15132 | 4095 ft | 236 kts | 284° |
| 2026-04-25 20:47 | 52.43665 | 10.12504 | 3450 ft | 234 kts | 284° |
| 2026-04-25 20:47 | 52.43935 | 10.09910 | 3054 ft | 221 kts | 285° |
| 2026-04-25 20:48 | 52.44177 | 10.07577 | 3006 ft | 197 kts | 284° |
| 2026-04-25 20:48 | 52.44341 | 10.05424 | 3006 ft | 184 kts | 282° |
| 2026-04-25 20:48 | 52.44430 | 10.03412 | 3034 ft | 168 kts | 280° |
| 2026-04-25 20:48 | 52.44492 | 10.01603 | 3016 ft | 151 kts | 281° |
| 2026-04-25 20:49 | 52.44545 | 9.99959 | 2991 ft | 137 kts | 282° |
| 2026-04-25 20:49 | 52.44595 | 9.98430 | 3003 ft | 132 kts | 282° |
| 2026-04-25 20:49 | 52.44642 | 9.96936 | 3009 ft | 131 kts | 282° |
| 2026-04-25 20:49 | 52.44689 | 9.95447 | 3007 ft | 131 kts | 282° |
| 2026-04-25 20:50 | 52.44735 | 9.93951 | 2929 ft | 131 kts | 282° |
| 2026-04-25 20:50 | 52.44780 | 9.92456 | 2812 ft | 130 kts | 282° |
| 2026-04-25 20:50 | 52.44825 | 9.90982 | 2676 ft | 130 kts | 282° |
| 2026-04-25 20:50 | 52.44868 | 9.89521 | 2493 ft | 129 kts | 282° |
| 2026-04-25 20:51 | 52.44912 | 9.88060 | 2310 ft | 128 kts | 282° |
| 2026-04-25 20:51 | 52.44955 | 9.86607 | 2136 ft | 128 kts | 281° |
| 2026-04-25 20:51 | 52.44998 | 9.85149 | 1961 ft | 128 kts | 281° |
| 2026-04-25 20:51 | 52.45041 | 9.83692 | 1782 ft | 128 kts | 280° |
| 2026-04-25 20:52 | 52.45083 | 9.82238 | 1598 ft | 127 kts | 279° |
| 2026-04-25 20:52 | 52.45097 | 9.81752 | 1535 ft | 127 kts | 278° |
| 2026-04-25 20:52 | 52.45167 | 9.79356 | 1241 ft | 128 kts | 278° |
| 2026-04-25 20:52 | 52.45210 | 9.77881 | 1056 ft | 128 kts | 277° |
| 2026-04-25 20:53 | 52.45252 | 9.76416 | 872 ft | 129 kts | 276° |
| 2026-04-25 20:53 | 52.45293 | 9.74949 | 696 ft | 128 kts | 275° |
| 2026-04-25 20:53 | 52.45321 | 9.73991 | 580 ft | 128 kts | 276° |
| 2026-04-25 20:53 | 52.45377 | 9.72014 | 350 ft | 130 kts | 276° |
| 2026-04-25 20:54 | 52.45405 | 9.71045 | 237 ft | 129 kts | 275° |
| 2026-04-25 20:54 | 52.45449 | 9.69542 | 188 ft | 40 kts | 272° |
| 2026-04-25 20:54 | 52.45457 | 9.69225 | 190 ft | 17 kts | 272° |
| 2026-04-25 20:54 | 52.45506 | 9.69137 | 191 ft | 6 kts | 355° |
| 2026-04-25 20:55 | 52.45536 | 9.69135 | 185 ft | 8 kts | 357° |
| 2026-04-25 20:55 | 52.45551 | 9.69135 | 191 ft | 3 kts | 2° |
| 2026-04-25 20:55 | 52.45592 | 9.69138 | 184 ft | 6 kts | 3° |
| 2026-04-25 20:55 | 52.45606 | 9.69139 | 183 ft | 0 kts | 3° |
| 2026-04-25 20:56 | 52.45608 | 9.69140 | 183 ft | 2 kts | 4° |
| 2026-04-25 20:56 | 52.45632 | 9.69142 | 182 ft | 4 kts | 4° |
| 2026-04-25 20:56 | 52.45664 | 9.69146 | 182 ft | 5 kts | 4° |
| 2026-04-25 20:56 | 52.45710 | 9.69150 | 180 ft | 9 kts | 1° |
| 2026-04-25 20:57 | 52.45771 | 9.69197 | 179 ft | 11 kts | 36° |
| 2026-04-25 20:57 | 52.45820 | 9.69278 | 179 ft | 9 kts | 46° |
| 2026-04-25 20:57 | 52.45838 | 9.69309 | 179 ft | 0 kts | 47° |